sensor_id;sensor_type;location;lat;lon;timestamp;P1;durP1;ratioP1;P2;durP2;ratioP2
71790;SDS011;59638;52.126;5.434;2023-04-16T00:01:22;1.53;;;0.37;;
71790;SDS011;59638;52.126;5.434;2023-04-16T00:03:49;6.20;;;0.45;;
71790;SDS011;59638;52.126;5.434;2023-04-16T00:06:16;4.93;;;0.52;;
71790;SDS011;59638;52.126;5.434;2023-04-16T00:08:42;5.65;;;0.70;;
71790;SDS011;59638;52.126;5.434;2023-04-16T00:11:09;5.38;;;0.32;;
71790;SDS011;59638;52.126;5.434;2023-04-16T00:13:35;2.10;;;0.10;;
71790;SDS011;59638;52.126;5.434;2023-04-16T00:16:02;4.00;;;0.40;;
71790;SDS011;59638;52.126;5.434;2023-04-16T00:18:28;3.10;;;0.30;;
71790;SDS011;59638;52.126;5.434;2023-04-16T00:20:55;3.05;;;0.20;;
71790;SDS011;59638;52.126;5.434;2023-04-16T00:23:21;6.47;;;0.50;;
71790;SDS011;59638;52.126;5.434;2023-04-16T00:25:50;3.53;;;0.20;;
71790;SDS011;59638;52.126;5.434;2023-04-16T00:28:16;3.20;;;0.35;;
71790;SDS011;59638;52.126;5.434;2023-04-16T00:30:43;1.30;;;0.35;;
71790;SDS011;59638;52.126;5.434;2023-04-16T00:33:09;1.45;;;0.35;;
71790;SDS011;59638;52.126;5.434;2023-04-16T00:35:35;5.65;;;0.55;;
71790;SDS011;59638;52.126;5.434;2023-04-16T00:38:02;6.13;;;0.63;;
71790;SDS011;59638;52.126;5.434;2023-04-16T00:40:28;5.75;;;0.98;;
71790;SDS011;59638;52.126;5.434;2023-04-16T00:42:55;1.73;;;0.47;;
71790;SDS011;59638;52.126;5.434;2023-04-16T00:45:21;4.78;;;0.50;;
71790;SDS011;59638;52.126;5.434;2023-04-16T00:47:48;4.82;;;0.52;;
71790;SDS011;59638;52.126;5.434;2023-04-16T00:50:14;4.93;;;0.43;;
71790;SDS011;59638;52.126;5.434;2023-04-16T00:52:42;3.22;;;0.47;;
71790;SDS011;59638;52.126;5.434;2023-04-16T00:55:08;6.20;;;1.30;;
71790;SDS011;59638;52.126;5.434;2023-04-16T00:57:38;6.40;;;1.10;;
71790;SDS011;59638;52.126;5.434;2023-04-16T01:00:05;5.32;;;0.80;;
71790;SDS011;59638;52.126;5.434;2023-04-16T01:02:32;6.77;;;0.80;;
71790;SDS011;59638;52.126;5.434;2023-04-16T01:04:59;8.25;;;1.55;;
71790;SDS011;59638;52.126;5.434;2023-04-16T01:10:02;2.88;;;0.60;;
71790;SDS011;59638;52.126;5.434;2023-04-16T01:12:29;4.35;;;0.75;;
71790;SDS011;59638;52.126;5.434;2023-04-16T01:14:55;6.10;;;1.03;;
71790;SDS011;59638;52.126;5.434;2023-04-16T01:17:22;5.75;;;0.50;;
71790;SDS011;59638;52.126;5.434;2023-04-16T01:19:48;5.85;;;0.55;;
71790;SDS011;59638;52.126;5.434;2023-04-16T01:22:15;11.02;;;1.02;;
71790;SDS011;59638;52.126;5.434;2023-04-16T01:24:41;7.40;;;0.95;;
71790;SDS011;59638;52.126;5.434;2023-04-16T01:27:07;5.93;;;0.97;;
71790;SDS011;59638;52.126;5.434;2023-04-16T01:29:34;9.35;;;0.63;;
71790;SDS011;59638;52.126;5.434;2023-04-16T01:32:00;5.95;;;0.95;;
71790;SDS011;59638;52.126;5.434;2023-04-16T01:34:27;2.65;;;0.70;;
71790;SDS011;59638;52.126;5.434;2023-04-16T01:36:53;5.85;;;1.45;;
71790;SDS011;59638;52.126;5.434;2023-04-16T01:39:19;9.47;;;0.83;;
71790;SDS011;59638;52.126;5.434;2023-04-16T01:41:46;7.63;;;1.25;;
71790;SDS011;59638;52.126;5.434;2023-04-16T01:44:12;5.18;;;1.02;;
71790;SDS011;59638;52.126;5.434;2023-04-16T01:46:38;6.75;;;1.30;;
71790;SDS011;59638;52.126;5.434;2023-04-16T01:49:05;4.25;;;0.70;;
71790;SDS011;59638;52.126;5.434;2023-04-16T01:51:32;7.07;;;1.33;;
71790;SDS011;59638;52.126;5.434;2023-04-16T01:53:59;5.15;;;1.85;;
71790;SDS011;59638;52.126;5.434;2023-04-16T01:56:26;7.80;;;1.88;;
71790;SDS011;59638;52.126;5.434;2023-04-16T01:58:52;5.57;;;0.90;;
71790;SDS011;59638;52.126;5.434;2023-04-16T02:01:19;8.95;;;1.23;;
71790;SDS011;59638;52.126;5.434;2023-04-16T02:03:45;3.37;;;1.43;;
71790;SDS011;59638;52.126;5.434;2023-04-16T02:06:12;14.55;;;1.83;;
71790;SDS011;59638;52.126;5.434;2023-04-16T02:08:39;10.35;;;1.45;;
71790;SDS011;59638;52.126;5.434;2023-04-16T02:11:06;6.97;;;1.77;;
71790;SDS011;59638;52.126;5.434;2023-04-16T02:13:33;10.45;;;1.77;;
71790;SDS011;59638;52.126;5.434;2023-04-16T02:15:59;8.40;;;1.77;;
71790;SDS011;59638;52.126;5.434;2023-04-16T02:18:26;10.70;;;3.38;;
71790;SDS011;59638;52.126;5.434;2023-04-16T02:20:52;7.70;;;2.83;;
71790;SDS011;59638;52.126;5.434;2023-04-16T02:23:19;7.25;;;2.92;;
71790;SDS011;59638;52.126;5.434;2023-04-16T02:25:45;9.23;;;1.83;;
71790;SDS011;59638;52.126;5.434;2023-04-16T02:28:13;8.10;;;2.60;;
71790;SDS011;59638;52.126;5.434;2023-04-16T02:30:42;12.20;;;2.92;;
71790;SDS011;59638;52.126;5.434;2023-04-16T02:33:09;11.13;;;3.03;;
71790;SDS011;59638;52.126;5.434;2023-04-16T02:35:37;10.48;;;3.00;;
71790;SDS011;59638;52.126;5.434;2023-04-16T02:38:04;7.53;;;1.90;;
71790;SDS011;59638;52.126;5.434;2023-04-16T02:40:31;13.07;;;3.50;;
71790;SDS011;59638;52.126;5.434;2023-04-16T02:42:57;10.38;;;2.70;;
71790;SDS011;59638;52.126;5.434;2023-04-16T02:45:24;5.63;;;1.90;;
71790;SDS011;59638;52.126;5.434;2023-04-16T02:47:50;17.40;;;4.18;;
71790;SDS011;59638;52.126;5.434;2023-04-16T02:50:17;10.98;;;2.88;;
71790;SDS011;59638;52.126;5.434;2023-04-16T02:52:44;11.67;;;2.87;;
71790;SDS011;59638;52.126;5.434;2023-04-16T02:55:10;7.40;;;3.25;;
71790;SDS011;59638;52.126;5.434;2023-04-16T02:57:37;10.90;;;2.95;;
71790;SDS011;59638;52.126;5.434;2023-04-16T03:00:03;8.20;;;3.38;;
71790;SDS011;59638;52.126;5.434;2023-04-16T03:02:30;12.30;;;4.50;;
71790;SDS011;59638;52.126;5.434;2023-04-16T03:04:57;9.80;;;4.23;;
71790;SDS011;59638;52.126;5.434;2023-04-16T03:07:23;7.60;;;3.38;;
71790;SDS011;59638;52.126;5.434;2023-04-16T03:09:50;7.45;;;4.13;;
71790;SDS011;59638;52.126;5.434;2023-04-16T03:12:16;14.02;;;3.05;;
71790;SDS011;59638;52.126;5.434;2023-04-16T03:14:42;12.68;;;4.28;;
71790;SDS011;59638;52.126;5.434;2023-04-16T03:17:09;12.13;;;3.80;;
71790;SDS011;59638;52.126;5.434;2023-04-16T03:19:35;11.30;;;2.65;;
71790;SDS011;59638;52.126;5.434;2023-04-16T03:22:02;12.15;;;3.95;;
71790;SDS011;59638;52.126;5.434;2023-04-16T03:24:28;9.20;;;3.70;;
71790;SDS011;59638;52.126;5.434;2023-04-16T03:26:56;12.48;;;4.20;;
71790;SDS011;59638;52.126;5.434;2023-04-16T03:29:22;7.93;;;3.50;;
71790;SDS011;59638;52.126;5.434;2023-04-16T03:31:49;11.30;;;4.20;;
71790;SDS011;59638;52.126;5.434;2023-04-16T03:34:15;7.15;;;3.08;;
71790;SDS011;59638;52.126;5.434;2023-04-16T03:36:42;7.30;;;2.90;;
71790;SDS011;59638;52.126;5.434;2023-04-16T03:39:08;8.73;;;3.40;;
71790;SDS011;59638;52.126;5.434;2023-04-16T03:41:35;7.67;;;3.07;;
71790;SDS011;59638;52.126;5.434;2023-04-16T03:44:01;10.85;;;3.83;;
71790;SDS011;59638;52.126;5.434;2023-04-16T03:46:27;3.38;;;1.77;;
71790;SDS011;59638;52.126;5.434;2023-04-16T03:48:54;6.88;;;1.88;;
71790;SDS011;59638;52.126;5.434;2023-04-16T03:51:20;9.10;;;3.47;;
71790;SDS011;59638;52.126;5.434;2023-04-16T03:53:47;7.43;;;2.77;;
71790;SDS011;59638;52.126;5.434;2023-04-16T03:56:13;7.68;;;3.17;;
71790;SDS011;59638;52.126;5.434;2023-04-16T03:58:39;11.00;;;3.17;;
71790;SDS011;59638;52.126;5.434;2023-04-16T04:01:06;9.27;;;3.15;;
71790;SDS011;59638;52.126;5.434;2023-04-16T04:03:32;7.05;;;4.15;;
71790;SDS011;59638;52.126;5.434;2023-04-16T04:05:59;15.33;;;4.70;;
71790;SDS011;59638;52.126;5.434;2023-04-16T04:08:25;12.27;;;4.50;;
71790;SDS011;59638;52.126;5.434;2023-04-16T04:10:51;9.10;;;4.07;;
71790;SDS011;59638;52.126;5.434;2023-04-16T04:13:18;12.30;;;4.40;;
71790;SDS011;59638;52.126;5.434;2023-04-16T04:15:44;6.30;;;3.05;;
71790;SDS011;59638;52.126;5.434;2023-04-16T04:18:11;13.57;;;3.70;;
71790;SDS011;59638;52.126;5.434;2023-04-16T04:20:38;13.93;;;3.47;;
71790;SDS011;59638;52.126;5.434;2023-04-16T04:23:05;7.63;;;2.45;;
71790;SDS011;59638;52.126;5.434;2023-04-16T04:25:32;7.25;;;3.63;;
71790;SDS011;59638;52.126;5.434;2023-04-16T04:27:58;10.73;;;3.60;;
71790;SDS011;59638;52.126;5.434;2023-04-16T04:30:25;11.17;;;5.33;;
71790;SDS011;59638;52.126;5.434;2023-04-16T04:32:51;9.98;;;3.90;;
71790;SDS011;59638;52.126;5.434;2023-04-16T04:35:17;7.63;;;3.65;;
71790;SDS011;59638;52.126;5.434;2023-04-16T04:37:44;13.15;;;2.83;;
71790;SDS011;59638;52.126;5.434;2023-04-16T04:40:10;12.45;;;3.65;;
71790;SDS011;59638;52.126;5.434;2023-04-16T04:42:37;10.50;;;3.60;;
71790;SDS011;59638;52.126;5.434;2023-04-16T04:45:04;17.02;;;4.32;;
71790;SDS011;59638;52.126;5.434;2023-04-16T04:47:30;11.82;;;3.42;;
71790;SDS011;59638;52.126;5.434;2023-04-16T04:49:57;6.97;;;3.40;;
71790;SDS011;59638;52.126;5.434;2023-04-16T04:52:23;19.88;;;3.53;;
71790;SDS011;59638;52.126;5.434;2023-04-16T04:54:50;7.57;;;3.43;;
71790;SDS011;59638;52.126;5.434;2023-04-16T04:57:16;9.70;;;2.95;;
71790;SDS011;59638;52.126;5.434;2023-04-16T04:59:42;17.10;;;4.18;;
71790;SDS011;59638;52.126;5.434;2023-04-16T05:02:09;9.27;;;4.10;;
71790;SDS011;59638;52.126;5.434;2023-04-16T05:04:35;8.85;;;3.38;;
71790;SDS011;59638;52.126;5.434;2023-04-16T05:07:01;12.77;;;3.20;;
71790;SDS011;59638;52.126;5.434;2023-04-16T05:09:28;10.55;;;4.10;;
71790;SDS011;59638;52.126;5.434;2023-04-16T05:11:54;14.07;;;3.72;;
71790;SDS011;59638;52.126;5.434;2023-04-16T05:14:22;12.68;;;3.38;;
71790;SDS011;59638;52.126;5.434;2023-04-16T05:16:49;11.38;;;4.32;;
71790;SDS011;59638;52.126;5.434;2023-04-16T05:19:16;11.03;;;2.67;;
71790;SDS011;59638;52.126;5.434;2023-04-16T05:21:42;13.48;;;3.35;;
71790;SDS011;59638;52.126;5.434;2023-04-16T05:24:08;6.35;;;2.25;;
71790;SDS011;59638;52.126;5.434;2023-04-16T05:26:35;12.20;;;4.50;;
71790;SDS011;59638;52.126;5.434;2023-04-16T05:29:01;14.02;;;4.93;;
71790;SDS011;59638;52.126;5.434;2023-04-16T05:31:28;9.97;;;3.70;;
71790;SDS011;59638;52.126;5.434;2023-04-16T05:33:54;9.98;;;2.75;;
71790;SDS011;59638;52.126;5.434;2023-04-16T05:36:21;12.30;;;4.22;;
71790;SDS011;59638;52.126;5.434;2023-04-16T05:38:47;9.18;;;2.78;;
71790;SDS011;59638;52.126;5.434;2023-04-16T05:41:14;7.55;;;3.05;;
71790;SDS011;59638;52.126;5.434;2023-04-16T05:43:40;11.20;;;4.23;;
71790;SDS011;59638;52.126;5.434;2023-04-16T05:46:07;9.82;;;3.95;;
71790;SDS011;59638;52.126;5.434;2023-04-16T05:48:33;8.38;;;3.40;;
71790;SDS011;59638;52.126;5.434;2023-04-16T05:50:59;13.00;;;4.38;;
71790;SDS011;59638;52.126;5.434;2023-04-16T05:53:27;9.63;;;2.55;;
71790;SDS011;59638;52.126;5.434;2023-04-16T05:55:54;8.53;;;2.70;;
71790;SDS011;59638;52.126;5.434;2023-04-16T05:58:20;10.70;;;3.92;;
71790;SDS011;59638;52.126;5.434;2023-04-16T06:00:47;11.73;;;3.63;;
71790;SDS011;59638;52.126;5.434;2023-04-16T06:03:13;9.18;;;4.15;;
71790;SDS011;59638;52.126;5.434;2023-04-16T06:05:40;17.13;;;3.83;;
71790;SDS011;59638;52.126;5.434;2023-04-16T06:08:06;12.37;;;4.07;;
71790;SDS011;59638;52.126;5.434;2023-04-16T06:10:33;10.60;;;4.07;;
71790;SDS011;59638;52.126;5.434;2023-04-16T06:12:59;9.77;;;3.50;;
71790;SDS011;59638;52.126;5.434;2023-04-16T06:15:26;9.90;;;3.50;;
71790;SDS011;59638;52.126;5.434;2023-04-16T06:17:53;9.50;;;2.38;;
71790;SDS011;59638;52.126;5.434;2023-04-16T06:20:19;11.20;;;4.57;;
71790;SDS011;59638;52.126;5.434;2023-04-16T06:22:45;10.50;;;3.03;;
71790;SDS011;59638;52.126;5.434;2023-04-16T06:25:12;13.75;;;3.80;;
71790;SDS011;59638;52.126;5.434;2023-04-16T06:27:39;12.20;;;4.57;;
71790;SDS011;59638;52.126;5.434;2023-04-16T06:30:10;9.63;;;4.40;;
71790;SDS011;59638;52.126;5.434;2023-04-16T06:32:37;14.53;;;4.50;;
71790;SDS011;59638;52.126;5.434;2023-04-16T06:35:04;15.05;;;3.70;;
71790;SDS011;59638;52.126;5.434;2023-04-16T06:37:31;14.38;;;5.10;;
71790;SDS011;59638;52.126;5.434;2023-04-16T06:39:57;13.27;;;4.32;;
71790;SDS011;59638;52.126;5.434;2023-04-16T06:42:23;9.55;;;4.53;;
71790;SDS011;59638;52.126;5.434;2023-04-16T06:44:50;21.03;;;5.40;;
71790;SDS011;59638;52.126;5.434;2023-04-16T06:47:16;15.38;;;5.50;;
71790;SDS011;59638;52.126;5.434;2023-04-16T06:49:43;8.77;;;4.75;;
71790;SDS011;59638;52.126;5.434;2023-04-16T06:52:10;20.30;;;5.75;;
71790;SDS011;59638;52.126;5.434;2023-04-16T06:54:36;10.02;;;5.15;;
71790;SDS011;59638;52.126;5.434;2023-04-16T06:57:03;6.73;;;2.70;;
71790;SDS011;59638;52.126;5.434;2023-04-16T06:59:29;9.43;;;5.15;;
71790;SDS011;59638;52.126;5.434;2023-04-16T07:01:56;7.88;;;3.28;;
71790;SDS011;59638;52.126;5.434;2023-04-16T07:04:22;7.78;;;3.97;;
71790;SDS011;59638;52.126;5.434;2023-04-16T07:06:49;6.97;;;3.72;;
71790;SDS011;59638;52.126;5.434;2023-04-16T07:09:15;16.00;;;5.17;;
71790;SDS011;59638;52.126;5.434;2023-04-16T07:11:43;16.40;;;7.10;;
71790;SDS011;59638;52.126;5.434;2023-04-16T07:14:09;15.48;;;6.70;;
71790;SDS011;59638;52.126;5.434;2023-04-16T07:16:36;7.30;;;3.88;;
71790;SDS011;59638;52.126;5.434;2023-04-16T07:19:03;8.93;;;5.15;;
71790;SDS011;59638;52.126;5.434;2023-04-16T07:21:29;7.17;;;3.90;;
71790;SDS011;59638;52.126;5.434;2023-04-16T07:23:56;9.00;;;4.13;;
71790;SDS011;59638;52.126;5.434;2023-04-16T07:26:23;15.27;;;5.03;;
71790;SDS011;59638;52.126;5.434;2023-04-16T07:28:49;4.78;;;3.08;;
71790;SDS011;59638;52.126;5.434;2023-04-16T07:31:15;9.20;;;5.35;;
71790;SDS011;59638;52.126;5.434;2023-04-16T07:33:42;5.33;;;2.87;;
71790;SDS011;59638;52.126;5.434;2023-04-16T07:36:08;8.07;;;3.58;;
71790;SDS011;59638;52.126;5.434;2023-04-16T07:38:36;11.65;;;5.25;;
71790;SDS011;59638;52.126;5.434;2023-04-16T07:41:02;13.68;;;5.30;;
71790;SDS011;59638;52.126;5.434;2023-04-16T07:43:29;9.45;;;4.90;;
71790;SDS011;59638;52.126;5.434;2023-04-16T07:45:55;6.33;;;3.60;;
71790;SDS011;59638;52.126;5.434;2023-04-16T07:48:22;15.10;;;4.65;;
71790;SDS011;59638;52.126;5.434;2023-04-16T07:50:48;11.60;;;4.68;;
71790;SDS011;59638;52.126;5.434;2023-04-16T07:53:15;3.90;;;2.13;;
71790;SDS011;59638;52.126;5.434;2023-04-16T07:55:41;6.10;;;3.28;;
71790;SDS011;59638;52.126;5.434;2023-04-16T07:58:08;12.63;;;5.03;;
71790;SDS011;59638;52.126;5.434;2023-04-16T08:00:34;6.32;;;3.58;;
71790;SDS011;59638;52.126;5.434;2023-04-16T08:03:01;14.65;;;6.53;;
71790;SDS011;59638;52.126;5.434;2023-04-16T08:05:27;11.93;;;4.72;;
71790;SDS011;59638;52.126;5.434;2023-04-16T08:07:54;4.63;;;2.88;;
71790;SDS011;59638;52.126;5.434;2023-04-16T08:10:21;11.77;;;5.13;;
71790;SDS011;59638;52.126;5.434;2023-04-16T08:12:47;7.78;;;3.95;;
71790;SDS011;59638;52.126;5.434;2023-04-16T08:15:13;8.57;;;3.22;;
71790;SDS011;59638;52.126;5.434;2023-04-16T08:17:40;10.63;;;4.30;;
71790;SDS011;59638;52.126;5.434;2023-04-16T08:20:06;10.85;;;4.05;;
71790;SDS011;59638;52.126;5.434;2023-04-16T08:22:33;11.90;;;5.03;;
71790;SDS011;59638;52.126;5.434;2023-04-16T08:25:00;11.65;;;3.58;;
71790;SDS011;59638;52.126;5.434;2023-04-16T08:27:26;4.82;;;2.25;;
71790;SDS011;59638;52.126;5.434;2023-04-16T08:29:53;8.15;;;4.32;;
71790;SDS011;59638;52.126;5.434;2023-04-16T08:32:19;10.35;;;4.15;;
71790;SDS011;59638;52.126;5.434;2023-04-16T08:34:46;7.77;;;2.90;;
71790;SDS011;59638;52.126;5.434;2023-04-16T08:37:12;5.60;;;4.03;;
71790;SDS011;59638;52.126;5.434;2023-04-16T08:39:39;5.47;;;3.78;;
71790;SDS011;59638;52.126;5.434;2023-04-16T08:42:05;5.40;;;2.60;;
71790;SDS011;59638;52.126;5.434;2023-04-16T08:44:41;4.57;;;2.22;;
71790;SDS011;59638;52.126;5.434;2023-04-16T08:47:14;8.33;;;2.70;;
71790;SDS011;59638;52.126;5.434;2023-04-16T08:49:44;3.15;;;1.15;;
71790;SDS011;59638;52.126;5.434;2023-04-16T08:52:14;6.88;;;2.90;;
71790;SDS011;59638;52.126;5.434;2023-04-16T08:54:50;3.58;;;2.47;;
71790;SDS011;59638;52.126;5.434;2023-04-16T08:57:22;7.18;;;2.58;;
71790;SDS011;59638;52.126;5.434;2023-04-16T08:59:52;2.77;;;1.37;;
71790;SDS011;59638;52.126;5.434;2023-04-16T09:02:20;3.25;;;1.90;;
71790;SDS011;59638;52.126;5.434;2023-04-16T09:04:47;3.25;;;2.05;;
71790;SDS011;59638;52.126;5.434;2023-04-16T09:07:15;3.47;;;2.00;;
71790;SDS011;59638;52.126;5.434;2023-04-16T09:09:44;6.70;;;1.38;;
71790;SDS011;59638;52.126;5.434;2023-04-16T09:12:15;4.30;;;1.30;;
71790;SDS011;59638;52.126;5.434;2023-04-16T09:14:42;4.75;;;2.08;;
71790;SDS011;59638;52.126;5.434;2023-04-16T09:17:12;2.95;;;2.00;;
71790;SDS011;59638;52.126;5.434;2023-04-16T09:19:39;6.40;;;2.50;;
71790;SDS011;59638;52.126;5.434;2023-04-16T09:22:06;2.65;;;1.42;;
71790;SDS011;59638;52.126;5.434;2023-04-16T09:24:32;2.80;;;1.57;;
71790;SDS011;59638;52.126;5.434;2023-04-16T09:26:59;4.70;;;1.80;;
71790;SDS011;59638;52.126;5.434;2023-04-16T09:29:33;4.13;;;2.05;;
71790;SDS011;59638;52.126;5.434;2023-04-16T09:32:07;4.55;;;2.70;;
71790;SDS011;59638;52.126;5.434;2023-04-16T09:35:09;3.45;;;1.40;;
71790;SDS011;59638;52.126;5.434;2023-04-16T09:37:29;4.53;;;2.03;;
71790;SDS011;59638;52.126;5.434;2023-04-16T09:39:56;6.60;;;1.98;;
71790;SDS011;59638;52.126;5.434;2023-04-16T09:42:28;5.15;;;2.50;;
71790;SDS011;59638;52.126;5.434;2023-04-16T09:44:56;8.02;;;2.88;;
71790;SDS011;59638;52.126;5.434;2023-04-16T09:47:42;5.65;;;1.98;;
71790;SDS011;59638;52.126;5.434;2023-04-16T09:50:13;3.73;;;2.40;;
71790;SDS011;59638;52.126;5.434;2023-04-16T09:52:46;1.63;;;0.70;;
71790;SDS011;59638;52.126;5.434;2023-04-16T09:55:26;3.72;;;2.42;;
71790;SDS011;59638;52.126;5.434;2023-04-16T09:57:57;3.85;;;2.17;;
71790;SDS011;59638;52.126;5.434;2023-04-16T10:00:25;4.05;;;2.45;;
71790;SDS011;59638;52.126;5.434;2023-04-16T10:03:01;7.23;;;3.60;;
71790;SDS011;59638;52.126;5.434;2023-04-16T10:05:29;6.60;;;3.22;;
71790;SDS011;59638;52.126;5.434;2023-04-16T10:07:58;5.93;;;2.25;;
71790;SDS011;59638;52.126;5.434;2023-04-16T10:10:26;6.13;;;3.08;;
71790;SDS011;59638;52.126;5.434;2023-04-16T10:12:54;6.20;;;2.38;;
71790;SDS011;59638;52.126;5.434;2023-04-16T10:15:20;5.93;;;2.73;;
71790;SDS011;59638;52.126;5.434;2023-04-16T10:17:47;5.18;;;3.15;;
71790;SDS011;59638;52.126;5.434;2023-04-16T10:20:15;11.57;;;3.67;;
71790;SDS011;59638;52.126;5.434;2023-04-16T10:22:43;5.97;;;4.03;;
71790;SDS011;59638;52.126;5.434;2023-04-16T10:25:10;9.75;;;5.13;;
71790;SDS011;59638;52.126;5.434;2023-04-16T10:27:37;8.73;;;4.43;;
71790;SDS011;59638;52.126;5.434;2023-04-16T10:30:04;12.65;;;4.97;;
71790;SDS011;59638;52.126;5.434;2023-04-16T10:32:32;12.68;;;5.00;;
71790;SDS011;59638;52.126;5.434;2023-04-16T10:35:00;6.65;;;4.82;;
71790;SDS011;59638;52.126;5.434;2023-04-16T10:37:29;13.05;;;5.40;;
71790;SDS011;59638;52.126;5.434;2023-04-16T10:39:59;6.70;;;4.50;;
71790;SDS011;59638;52.126;5.434;2023-04-16T10:42:27;12.07;;;3.78;;
71790;SDS011;59638;52.126;5.434;2023-04-16T10:44:54;8.73;;;3.95;;
71790;SDS011;59638;52.126;5.434;2023-04-16T10:47:25;8.25;;;4.85;;
71790;SDS011;59638;52.126;5.434;2023-04-16T10:49:51;10.15;;;4.57;;
71790;SDS011;59638;52.126;5.434;2023-04-16T10:52:18;9.93;;;4.70;;
71790;SDS011;59638;52.126;5.434;2023-04-16T10:54:45;10.38;;;5.30;;
71790;SDS011;59638;52.126;5.434;2023-04-16T10:57:16;7.40;;;4.85;;
71790;SDS011;59638;52.126;5.434;2023-04-16T10:59:44;9.00;;;4.13;;
71790;SDS011;59638;52.126;5.434;2023-04-16T11:02:17;12.27;;;4.47;;
71790;SDS011;59638;52.126;5.434;2023-04-16T11:04:45;11.43;;;4.53;;
71790;SDS011;59638;52.126;5.434;2023-04-16T11:07:17;12.23;;;4.65;;
71790;SDS011;59638;52.126;5.434;2023-04-16T11:09:55;11.50;;;4.22;;
71790;SDS011;59638;52.126;5.434;2023-04-16T11:12:40;6.32;;;3.95;;
71790;SDS011;59638;52.126;5.434;2023-04-16T11:15:25;8.48;;;3.50;;
71790;SDS011;59638;52.126;5.434;2023-04-16T11:17:55;11.13;;;4.40;;
71790;SDS011;59638;52.126;5.434;2023-04-16T11:20:23;7.75;;;4.40;;
71790;SDS011;59638;52.126;5.434;2023-04-16T11:22:51;8.77;;;3.80;;
71790;SDS011;59638;52.126;5.434;2023-04-16T11:25:23;7.93;;;4.07;;
71790;SDS011;59638;52.126;5.434;2023-04-16T11:27:52;8.98;;;4.63;;
71790;SDS011;59638;52.126;5.434;2023-04-16T11:30:26;7.87;;;4.03;;
71790;SDS011;59638;52.126;5.434;2023-04-16T11:32:54;15.82;;;5.25;;
71790;SDS011;59638;52.126;5.434;2023-04-16T11:35:21;6.55;;;4.15;;
71790;SDS011;59638;52.126;5.434;2023-04-16T11:37:47;8.35;;;4.68;;
71790;SDS011;59638;52.126;5.434;2023-04-16T11:40:14;5.65;;;2.38;;
71790;SDS011;59638;52.126;5.434;2023-04-16T11:42:41;10.10;;;4.97;;
71790;SDS011;59638;52.126;5.434;2023-04-16T11:45:08;5.85;;;2.92;;
71790;SDS011;59638;52.126;5.434;2023-04-16T11:53:06;11.43;;;4.53;;
71790;SDS011;59638;52.126;5.434;2023-04-16T11:55:33;9.53;;;5.33;;
71790;SDS011;59638;52.126;5.434;2023-04-16T11:58:12;6.97;;;3.90;;
71790;SDS011;59638;52.126;5.434;2023-04-16T12:00:42;8.68;;;5.47;;
71790;SDS011;59638;52.126;5.434;2023-04-16T12:03:10;12.55;;;5.25;;
71790;SDS011;59638;52.126;5.434;2023-04-16T12:05:37;8.13;;;4.18;;
71790;SDS011;59638;52.126;5.434;2023-04-16T12:08:05;13.20;;;4.67;;
71790;SDS011;59638;52.126;5.434;2023-04-16T12:10:37;15.95;;;6.15;;
71790;SDS011;59638;52.126;5.434;2023-04-16T12:13:18;10.68;;;5.47;;
71790;SDS011;59638;52.126;5.434;2023-04-16T12:15:48;10.77;;;5.75;;
71790;SDS011;59638;52.126;5.434;2023-04-16T12:18:16;7.78;;;4.30;;
71790;SDS011;59638;52.126;5.434;2023-04-16T12:20:43;9.00;;;4.57;;
71790;SDS011;59638;52.126;5.434;2023-04-16T12:25:54;12.63;;;4.85;;
71790;SDS011;59638;52.126;5.434;2023-04-16T12:28:28;9.98;;;4.82;;
71790;SDS011;59638;52.126;5.434;2023-04-16T12:30:59;9.35;;;5.25;;
71790;SDS011;59638;52.126;5.434;2023-04-16T12:33:27;7.07;;;4.03;;
71790;SDS011;59638;52.126;5.434;2023-04-16T12:35:54;10.63;;;4.40;;
71790;SDS011;59638;52.126;5.434;2023-04-16T12:38:20;8.02;;;4.90;;
71790;SDS011;59638;52.126;5.434;2023-04-16T12:40:49;6.65;;;4.32;;
71790;SDS011;59638;52.126;5.434;2023-04-16T12:43:16;9.88;;;3.13;;
71790;SDS011;59638;52.126;5.434;2023-04-16T12:45:43;12.10;;;4.00;;
71790;SDS011;59638;52.126;5.434;2023-04-16T12:48:09;7.60;;;4.65;;
71790;SDS011;59638;52.126;5.434;2023-04-16T12:50:36;8.90;;;4.60;;
71790;SDS011;59638;52.126;5.434;2023-04-16T12:53:04;12.98;;;4.55;;
71790;SDS011;59638;52.126;5.434;2023-04-16T12:55:31;7.65;;;3.63;;
71790;SDS011;59638;52.126;5.434;2023-04-16T12:57:57;6.90;;;4.27;;
71790;SDS011;59638;52.126;5.434;2023-04-16T13:00:23;15.13;;;5.72;;
71790;SDS011;59638;52.126;5.434;2023-04-16T13:02:50;7.78;;;3.92;;
71790;SDS011;59638;52.126;5.434;2023-04-16T13:05:17;6.88;;;4.15;;
71790;SDS011;59638;52.126;5.434;2023-04-16T13:07:44;5.07;;;2.97;;
71790;SDS011;59638;52.126;5.434;2023-04-16T13:10:11;5.43;;;3.57;;
71790;SDS011;59638;52.126;5.434;2023-04-16T13:12:38;8.32;;;3.80;;
71790;SDS011;59638;52.126;5.434;2023-04-16T13:15:04;8.10;;;2.95;;
71790;SDS011;59638;52.126;5.434;2023-04-16T13:17:31;13.50;;;5.35;;
71790;SDS011;59638;52.126;5.434;2023-04-16T13:19:58;9.80;;;5.00;;
71790;SDS011;59638;52.126;5.434;2023-04-16T13:22:24;7.00;;;2.97;;
71790;SDS011;59638;52.126;5.434;2023-04-16T13:24:51;11.60;;;4.45;;
71790;SDS011;59638;52.126;5.434;2023-04-16T13:27:17;10.95;;;4.85;;
71790;SDS011;59638;52.126;5.434;2023-04-16T13:29:44;18.75;;;6.90;;
71790;SDS011;59638;52.126;5.434;2023-04-16T13:32:11;14.07;;;4.50;;
71790;SDS011;59638;52.126;5.434;2023-04-16T13:34:39;9.27;;;3.87;;
71790;SDS011;59638;52.126;5.434;2023-04-16T13:37:05;16.83;;;5.70;;
71790;SDS011;59638;52.126;5.434;2023-04-16T13:39:32;8.15;;;3.42;;
71790;SDS011;59638;52.126;5.434;2023-04-16T13:41:58;6.65;;;3.92;;
71790;SDS011;59638;52.126;5.434;2023-04-16T13:44:25;12.35;;;4.00;;
71790;SDS011;59638;52.126;5.434;2023-04-16T13:46:51;14.47;;;4.73;;
71790;SDS011;59638;52.126;5.434;2023-04-16T13:49:18;13.07;;;4.93;;
71790;SDS011;59638;52.126;5.434;2023-04-16T13:51:44;8.55;;;3.72;;
71790;SDS011;59638;52.126;5.434;2023-04-16T13:54:11;10.73;;;4.68;;
71790;SDS011;59638;52.126;5.434;2023-04-16T13:56:38;11.48;;;3.75;;
71790;SDS011;59638;52.126;5.434;2023-04-16T13:59:04;12.63;;;4.67;;
71790;SDS011;59638;52.126;5.434;2023-04-16T14:01:31;9.60;;;4.45;;
71790;SDS011;59638;52.126;5.434;2023-04-16T14:03:57;7.63;;;3.15;;
71790;SDS011;59638;52.126;5.434;2023-04-16T14:06:25;11.52;;;4.03;;
71790;SDS011;59638;52.126;5.434;2023-04-16T14:08:52;10.05;;;4.47;;
71790;SDS011;59638;52.126;5.434;2023-04-16T14:11:18;8.17;;;3.83;;
71790;SDS011;59638;52.126;5.434;2023-04-16T14:13:44;7.38;;;3.90;;
71790;SDS011;59638;52.126;5.434;2023-04-16T14:16:11;9.20;;;4.50;;
71790;SDS011;59638;52.126;5.434;2023-04-16T14:18:37;7.57;;;3.45;;
71790;SDS011;59638;52.126;5.434;2023-04-16T14:21:07;10.98;;;3.97;;
71790;SDS011;59638;52.126;5.434;2023-04-16T14:23:34;10.00;;;4.10;;
71790;SDS011;59638;52.126;5.434;2023-04-16T14:26:00;7.57;;;3.70;;
71790;SDS011;59638;52.126;5.434;2023-04-16T14:28:27;8.23;;;3.33;;
71790;SDS011;59638;52.126;5.434;2023-04-16T14:30:53;7.35;;;4.45;;
71790;SDS011;59638;52.126;5.434;2023-04-16T14:33:19;9.50;;;3.83;;
71790;SDS011;59638;52.126;5.434;2023-04-16T14:35:46;7.33;;;4.57;;
71790;SDS011;59638;52.126;5.434;2023-04-16T14:38:12;13.30;;;3.67;;
71790;SDS011;59638;52.126;5.434;2023-04-16T14:40:39;8.18;;;3.55;;
71790;SDS011;59638;52.126;5.434;2023-04-16T14:43:05;6.20;;;4.18;;
71790;SDS011;59638;52.126;5.434;2023-04-16T14:45:32;6.80;;;3.50;;
71790;SDS011;59638;52.126;5.434;2023-04-16T14:47:58;6.07;;;3.70;;
71790;SDS011;59638;52.126;5.434;2023-04-16T14:50:25;16.23;;;5.22;;
71790;SDS011;59638;52.126;5.434;2023-04-16T14:52:51;9.32;;;5.05;;
71790;SDS011;59638;52.126;5.434;2023-04-16T14:55:19;13.52;;;5.13;;